Time;durP1;ratioP1;P1;durP2;ratioP2;P2;SDS_P1;SDS_P2;PMS_P1;PMS_P2;Temp;Humidity;BMP_temperature;BMP_pressure;BME280_temperature;BME280_humidity;BME280_pressure;Samples;Min_cycle;Max_cycle;Signal;HPM_P1;HPM_P2
2022/01/16 00:00:52;;;;;;;83.70;40.28;;;2.00;99.90;;;;;;5018795;28;20119;-48
2022/01/16 00:06:02;;;;;;;83.90;40.97;;;2.10;99.90;;;;;;4995194;28;20140;-46
2022/01/16 00:08:28;;;;;;;79.97;39.35;;;2.00;99.90;;;;;;5009251;28;20042;-46
2022/01/16 00:10:54;;;;;;;79.40;40.05;;;2.00;99.90;;;;;;5022618;28;20131;-46
2022/01/16 00:13:23;;;;;;;87.50;41.50;;;2.00;99.90;;;;;;5004428;28;20057;-48
2022/01/16 00:15:49;;;;;;;82.38;40.80;;;2.00;99.90;;;;;;5023252;28;20412;-47
2022/01/16 00:18:24;;;;;;;82.53;40.63;;;2.00;99.90;;;;;;5014687;28;20053;-47
2022/01/16 00:20:51;;;;;;;80.70;39.70;;;2.00;99.90;;;;;;5022389;28;20049;-45
2022/01/16 00:23:24;;;;;;;83.40;39.65;;;2.00;99.90;;;;;;5022900;28;20089;-47
2022/01/16 00:25:54;;;;;;;87.43;41.30;;;2.00;99.90;;;;;;5023468;28;20060;-48
2022/01/16 00:28:21;;;;;;;85.72;41.92;;;2.00;99.90;;;;;;5023051;28;20049;-46
2022/01/16 00:30:48;;;;;;;88.28;40.55;;;2.00;99.90;;;;;;5022832;28;20057;-48
2022/01/16 00:33:15;;;;;;;90.63;41.70;;;2.10;99.90;;;;;;5023513;28;20045;-47
2022/01/16 00:35:41;;;;;;;89.78;42.97;;;2.00;99.90;;;;;;4991963;28;20104;-49
2022/01/16 00:38:07;;;;;;;82.03;40.88;;;2.00;99.90;;;;;;5026002;28;20077;-47
2022/01/16 00:40:34;;;;;;;81.35;41.25;;;2.10;99.90;;;;;;5021825;28;20058;-51
2022/01/16 00:42:59;;;;;;;79.03;38.83;;;2.10;99.90;;;;;;5021717;28;20693;-50
2022/01/16 00:45:26;;;;;;;91.47;41.40;;;2.10;99.90;;;;;;5003655;28;20069;-47
2022/01/16 00:47:52;;;;;;;89.25;42.75;;;2.10;99.90;;;;;;5008594;28;20171;-46
2022/01/16 00:50:18;;;;;;;96.30;43.38;;;2.10;99.90;;;;;;5022210;28;20483;-46
2022/01/16 00:52:44;;;;;;;97.75;42.00;;;2.00;99.90;;;;;;5020999;28;20045;-47
2022/01/16 00:55:10;;;;;;;93.40;43.55;;;2.00;99.90;;;;;;5016890;28;20095;-47
2022/01/16 00:57:36;;;;;;;97.95;45.13;;;2.10;99.90;;;;;;5021420;28;20056;-46
2022/01/16 01:00:02;;;;;;;94.47;43.75;;;2.00;99.90;;;;;;5007583;28;20041;-47
2022/01/16 01:02:28;;;;;;;97.95;43.03;;;2.00;99.90;;;;;;5020238;28;20056;-46
2022/01/16 01:04:54;;;;;;;102.53;44.90;;;2.00;99.90;;;;;;5008508;28;20376;-47
2022/01/16 01:07:19;;;;;;;104.90;44.55;;;2.00;99.90;;;;;;5004931;28;20412;-46
2022/01/16 01:09:45;;;;;;;107.40;45.72;;;2.00;99.90;;;;;;5016915;28;20168;-46
2022/01/16 01:12:23;;;;;;;121.45;47.85;;;2.10;99.90;;;;;;5022570;28;20041;-50
2022/01/16 01:15:08;;;;;;;119.65;48.20;;;2.00;99.90;;;;;;5022690;28;20437;-46
2022/01/16 01:17:46;;;;;;;133.43;48.00;;;2.00;99.90;;;;;;4985295;28;20327;-46
2022/01/16 01:20:18;;;;;;;126.85;48.85;;;2.00;99.90;;;;;;5008751;28;20064;-46
2022/01/16 01:22:46;;;;;;;145.77;50.65;;;2.10;99.90;;;;;;5021083;28;20053;-47
2022/01/16 01:25:13;;;;;;;142.18;51.45;;;2.00;99.90;;;;;;5004164;28;20053;-48
2022/01/16 01:27:41;;;;;;;149.02;51.03;;;2.00;99.90;;;;;;5021412;28;20049;-47
2022/01/16 01:30:19;;;;;;;147.02;50.20;;;2.00;99.90;;;;;;5012264;28;20062;-46
2022/01/16 01:32:47;;;;;;;147.10;48.60;;;2.10;99.90;;;;;;5023026;28;20080;-47
2022/01/16 01:35:16;;;;;;;152.20;52.53;;;2.00;99.90;;;;;;5005967;28;20148;-46
2022/01/16 01:37:42;;;;;;;157.88;53.42;;;2.00;99.90;;;;;;5022708;28;20473;-46
2022/01/16 01:40:23;;;;;;;155.25;51.33;;;1.90;99.90;;;;;;5003569;28;20054;-47
2022/01/16 01:51:20;;;;;;;193.80;56.63;;;1.90;99.90;;;;;;5012113;28;20049;-46
2022/01/16 01:53:55;;;;;;;201.65;58.15;;;1.90;99.90;;;;;;4994509;28;20057;-46
2022/01/16 01:56:22;;;;;;;201.27;55.85;;;1.90;99.90;;;;;;5020742;28;20052;-47
2022/01/16 01:58:54;;;;;;;220.00;57.33;;;1.80;99.90;;;;;;5021242;28;20309;-48
2022/01/16 02:01:20;;;;;;;224.30;57.85;;;1.90;99.90;;;;;;4991209;28;20061;-46
2022/01/16 02:03:48;;;;;;;230.23;57.50;;;1.80;99.90;;;;;;5015885;28;20053;-46
2022/01/16 02:06:23;;;;;;;226.55;57.92;;;1.80;99.90;;;;;;5014053;28;20049;-46
2022/01/16 02:08:54;;;;;;;241.80;59.95;;;1.80;99.90;;;;;;5001192;28;20065;-48
2022/01/16 02:11:25;;;;;;;215.65;53.38;;;1.90;99.90;;;;;;5021790;28;20630;-46
2022/01/16 02:28:11;;;;;;;185.82;52.78;;;1.90;99.90;;;;;;5021750;28;20049;-47
2022/01/16 02:35:44;;;;;;;186.02;53.40;;;1.80;99.90;;;;;;5027091;28;20049;-47
2022/01/16 02:38:10;;;;;;;;;;;1.90;99.90;;;;;;5007143;28;20103;-45
2022/01/16 02:40:39;;;;;;;178.30;52.47;;;1.90;99.90;;;;;;5007441;28;20504;-47
2022/01/16 02:43:05;;;;;;;163.50;51.10;;;1.90;99.90;;;;;;5020048;28;20045;-47
2022/01/16 02:45:34;;;;;;;175.90;52.83;;;2.00;99.90;;;;;;5012416;28;20046;-45
2022/01/16 02:48:06;;;;;;;171.38;51.30;;;2.00;99.90;;;;;;5007643;28;20057;-47
2022/01/16 02:50:34;;;;;;;176.25;52.22;;;1.90;99.90;;;;;;5007514;28;20106;-46
2022/01/16 02:53:00;;;;;;;170.73;50.33;;;2.00;99.90;;;;;;5026108;28;20053;-48
2022/01/16 02:55:26;;;;;;;179.88;52.67;;;1.90;99.90;;;;;;5028839;28;20622;-48
2022/01/16 02:57:54;;;;;;;162.68;52.08;;;2.00;99.90;;;;;;4999071;28;20108;-55
2022/01/16 03:00:21;;;;;;;170.38;51.78;;;2.00;99.90;;;;;;5022141;28;20045;-47
2022/01/16 03:02:47;;;;;;;177.13;54.33;;;2.00;99.90;;;;;;5005809;28;20783;-46
2022/01/16 03:05:14;;;;;;;188.73;54.00;;;2.00;99.90;;;;;;5011917;28;20200;-46
2022/01/16 03:07:41;;;;;;;198.88;55.08;;;2.00;99.90;;;;;;5025324;28;20041;-47
2022/01/16 03:13:00;;;;;;;205.05;56.25;;;2.10;99.90;;;;;;5024822;28;20051;-46
2022/01/16 03:15:27;;;;;;;198.07;57.72;;;2.00;99.90;;;;;;5006881;28;20053;-47
2022/01/16 03:23:19;;;;;;;;;;;2.10;99.90;;;;;;5024023;28;20050;-46
2022/01/16 03:25:45;;;;;;;196.07;56.83;;;2.10;99.90;;;;;;5024728;28;19932;-45
2022/01/16 03:28:11;;;;;;;194.55;57.20;;;2.10;99.90;;;;;;5015812;28;20053;-46
2022/01/16 03:30:37;;;;;;;217.38;58.42;;;2.10;99.90;;;;;;5023782;28;20523;-50
2022/01/16 03:33:04;;;;;;;182.10;52.90;;;2.20;99.90;;;;;;5023819;28;20049;-46
2022/01/16 03:35:30;;;;;;;206.70;59.78;;;2.10;99.90;;;;;;5025371;28;20068;-47
2022/01/16 03:37:55;;;;;;;221.95;58.47;;;2.30;99.90;;;;;;5023617;28;20127;-49
2022/01/16 03:40:22;;;;;;;216.23;58.55;;;2.30;99.90;;;;;;4993044;28;20049;-47
2022/01/16 03:42:49;;;;;;;227.27;59.70;;;2.30;99.90;;;;;;5018063;28;20049;-46
2022/01/16 03:45:16;;;;;;;228.98;61.55;;;2.20;99.90;;;;;;5022794;28;20077;-45
2022/01/16 03:47:41;;;;;;;225.20;59.63;;;2.20;99.90;;;;;;5023750;28;20064;-48
2022/01/16 03:50:08;;;;;;;243.18;62.15;;;2.30;99.90;;;;;;5023937;28;20045;-47
2022/01/16 03:52:34;;;;;;;232.77;63.35;;;2.30;99.90;;;;;;5023938;28;20176;-49
2022/01/16 03:55:00;;;;;;;215.30;59.13;;;2.40;99.90;;;;;;5025242;28;20049;-49
2022/01/16 03:57:27;;;;;;;239.45;60.92;;;2.30;99.90;;;;;;5024386;28;20060;-49
2022/01/16 03:59:53;;;;;;;227.88;60.17;;;2.50;99.90;;;;;;5011284;28;20125;-46
2022/01/16 04:02:18;;;;;;;207.63;60.10;;;2.40;99.90;;;;;;5007617;28;20057;-46
2022/01/16 04:04:44;;;;;;;236.32;63.78;;;2.40;99.90;;;;;;5024555;28;20049;-50
2022/01/16 04:07:19;;;;;;;217.05;61.80;;;2.40;99.90;;;;;;5025826;28;20052;-50
2022/01/16 04:09:54;;;;;;;231.88;62.25;;;2.60;99.90;;;;;;5023638;28;20534;-47
2022/01/16 04:12:22;;;;;;;251.52;61.47;;;2.50;99.90;;;;;;5005465;28;20053;-47
2022/01/16 04:17:24;;;;;;;209.18;57.28;;;2.50;99.90;;;;;;5023555;28;20058;-49
2022/01/16 04:19:51;;;;;;;238.82;63.67;;;2.70;99.90;;;;;;5022264;28;20535;-46
2022/01/16 04:22:17;;;;;;;264.48;64.72;;;2.70;99.90;;;;;;5021769;28;20053;-47
2022/01/16 04:24:43;;;;;;;253.45;65.00;;;2.70;99.90;;;;;;5021673;28;20056;-46
2022/01/16 04:27:13;;;;;;;238.95;61.85;;;2.60;99.90;;;;;;5024360;28;20411;-46
2022/01/16 04:29:42;;;;;;;278.83;64.80;;;2.70;99.90;;;;;;5023409;28;20508;-48
2022/01/16 04:32:09;;;;;;;310.00;72.80;;;2.60;99.90;;;;;;5022129;28;20068;-46
2022/01/16 04:34:35;;;;;;;266.92;67.30;;;2.70;99.90;;;;;;5006765;28;20037;-47
2022/01/16 04:37:03;;;;;;;266.02;68.45;;;2.70;99.90;;;;;;5023786;28;20522;-47
2022/01/16 04:39:34;;;;;;;285.75;67.47;;;2.70;99.90;;;;;;5023486;28;20049;-46
2022/01/16 04:44:44;;;;;;;317.08;72.55;;;2.70;99.90;;;;;;5022944;28;20054;-46
2022/01/16 04:47:10;;;;;;;310.33;70.03;;;2.80;99.90;;;;;;5023287;28;20060;-46
2022/01/16 04:49:37;;;;;;;276.02;67.35;;;2.80;99.90;;;;;;5022699;28;20709;-47
2022/01/16 04:52:03;;;;;;;302.40;71.78;;;2.80;99.90;;;;;;5021999;28;20439;-46
2022/01/16 04:54:29;;;;;;;275.38;65.03;;;2.90;99.90;;;;;;5022138;28;20123;-47
2022/01/16 04:56:55;;;;;;;304.58;70.30;;;2.80;99.90;;;;;;5022888;28;20505;-46
2022/01/16 04:59:21;;;;;;;297.63;70.45;;;2.80;99.90;;;;;;5004856;28;20053;-46
2022/01/16 05:01:46;;;;;;;272.00;66.55;;;2.90;99.90;;;;;;5004345;28;20057;-45
2022/01/16 05:04:12;;;;;;;272.42;67.35;;;2.90;99.90;;;;;;5021984;28;20087;-46
2022/01/16 05:06:43;;;;;;;293.08;72.35;;;2.90;99.90;;;;;;5023128;28;20033;-48
2022/01/16 05:09:09;;;;;;;278.23;70.03;;;2.90;99.90;;;;;;5022798;28;20373;-49
2022/01/16 05:11:35;;;;;;;295.08;71.25;;;2.80;99.90;;;;;;5026395;28;20056;-47
2022/01/16 05:19:06;;;;;;;274.15;70.07;;;2.90;99.90;;;;;;5019549;28;20056;-48
2022/01/16 05:21:32;;;;;;;280.80;67.97;;;2.90;99.90;;;;;;5003068;28;20566;-47
2022/01/16 05:23:57;;;;;;;296.85;70.55;;;2.90;99.90;;;;;;4991874;28;20147;-49
2022/01/16 05:26:28;;;;;;;278.08;67.97;;;2.90;99.90;;;;;;5002208;28;20159;-47
2022/01/16 05:28:56;;;;;;;264.33;66.93;;;3.00;99.90;;;;;;5021275;28;20046;-46
2022/01/16 05:31:23;;;;;;;269.70;68.15;;;3.00;99.90;;;;;;5020503;28;20045;-47
2022/01/16 05:33:50;;;;;;;268.58;68.30;;;3.00;99.90;;;;;;5022561;28;20051;-47
2022/01/16 05:36:19;;;;;;;277.52;68.75;;;3.10;99.90;;;;;;5021003;28;20568;-49
2022/01/16 05:38:45;;;;;;;273.50;70.07;;;3.00;99.90;;;;;;5002803;28;20053;-46
2022/01/16 05:41:11;;;;;;;260.92;67.07;;;3.10;99.90;;;;;;5020147;28;20076;-46
2022/01/16 05:43:36;;;;;;;240.60;65.82;;;3.00;99.90;;;;;;4998633;28;20449;-46
2022/01/16 05:46:02;;;;;;;245.02;67.80;;;3.00;99.90;;;;;;5019367;28;20053;-47
2022/01/16 05:48:28;;;;;;;252.07;65.78;;;3.10;99.90;;;;;;5020244;28;20057;-49
2022/01/16 05:50:54;;;;;;;242.35;65.88;;;3.20;99.90;;;;;;5021031;28;20448;-46
2022/01/16 05:53:20;;;;;;;279.10;69.32;;;3.20;99.90;;;;;;5020984;28;20052;-47
2022/01/16 05:55:45;;;;;;;233.55;65.82;;;3.10;99.90;;;;;;5002019;28;20061;-48
2022/01/16 05:58:12;;;;;;;234.38;66.20;;;3.10;99.90;;;;;;5021492;28;20049;-48
2022/01/16 06:00:39;;;;;;;224.88;63.75;;;3.20;99.90;;;;;;5020548;28;20045;-46
2022/01/16 06:03:05;;;;;;;220.57;64.53;;;3.20;99.90;;;;;;5020386;28;20057;-48
2022/01/16 06:05:31;;;;;;;226.45;64.88;;;3.20;99.90;;;;;;5002158;28;20041;-46
2022/01/16 06:08:00;;;;;;;249.70;69.30;;;3.30;99.90;;;;;;5020630;28;20118;-50
2022/01/16 06:10:26;;;;;;;250.10;68.72;;;3.40;99.90;;;;;;5020691;28;20080;-46
2022/01/16 06:12:53;;;;;;;267.75;71.65;;;3.30;99.90;;;;;;5020981;28;20103;-46
2022/01/16 06:15:21;;;;;;;216.20;64.82;;;3.30;99.90;;;;;;5020612;28;20103;-47
2022/01/16 06:17:47;;;;;;;240.65;69.15;;;3.30;99.90;;;;;;5020859;28;20164;-49
2022/01/16 06:20:15;;;;;;;232.80;67.35;;;3.40;99.90;;;;;;5025467;28;20045;-46
2022/01/16 06:22:41;;;;;;;220.57;66.65;;;3.40;99.90;;;;;;5020361;28;20508;-48
2022/01/16 06:25:07;;;;;;;220.73;67.13;;;3.50;99.90;;;;;;5020302;28;20080;-47
2022/01/16 06:27:34;;;;;;;283.42;72.90;;;3.40;99.90;;;;;;5002098;28;20752;-46
2022/01/16 06:30:00;;;;;;;341.40;74.63;;;3.50;99.90;;;;;;5020713;28;20152;-48
2022/01/16 06:32:31;;;;;;;233.93;71.10;;;3.60;99.90;;;;;;5020578;28;20509;-47
2022/01/16 06:34:56;;;;;;;223.15;67.85;;;3.50;99.90;;;;;;5003935;28;20100;-46
2022/01/16 06:37:22;;;;;;;209.23;65.57;;;3.70;99.90;;;;;;5020407;28;20061;-47
2022/01/16 06:39:48;;;;;;;241.80;70.07;;;3.80;99.90;;;;;;5020485;28;20049;-46
2022/01/16 06:42:13;;;;;;;217.43;64.25;;;3.70;99.90;;;;;;5016300;28;20046;-46
2022/01/16 06:44:39;;;;;;;214.93;67.57;;;3.80;99.90;;;;;;5002286;28;20045;-46
2022/01/16 06:47:05;;;;;;;207.77;66.70;;;3.80;99.90;;;;;;5002473;28;20119;-46
2022/01/16 06:49:31;;;;;;;238.15;68.75;;;3.70;99.90;;;;;;5021143;28;20049;-47
2022/01/16 06:51:57;;;;;;;243.85;68.07;;;3.80;99.90;;;;;;5001231;28;20057;-48
2022/01/16 06:54:22;;;;;;;215.63;63.75;;;3.80;99.90;;;;;;5019898;28;20072;-46
2022/01/16 06:56:48;;;;;;;197.57;62.80;;;3.90;99.90;;;;;;5019959;28;20053;-47
2022/01/16 06:59:14;;;;;;;172.48;60.40;;;3.90;99.90;;;;;;5019987;28;20045;-47
2022/01/16 07:01:39;;;;;;;181.48;62.67;;;3.90;99.90;;;;;;5019759;28;20560;-47
2022/01/16 07:04:05;;;;;;;164.82;59.95;;;3.90;99.90;;;;;;5019687;28;20060;-46
2022/01/16 07:06:31;;;;;;;164.38;59.83;;;3.90;99.90;;;;;;5000822;28;20053;-48
2022/01/16 07:08:56;;;;;;;157.82;59.15;;;3.90;99.90;;;;;;5018398;28;20087;-47
2022/01/16 07:11:22;;;;;;;147.60;58.95;;;4.00;99.90;;;;;;5000913;28;20140;-50
2022/01/16 07:13:48;;;;;;;148.75;59.58;;;4.00;99.90;;;;;;5008182;28;20042;-47
2022/01/16 07:16:14;;;;;;;151.65;65.22;;;4.00;99.90;;;;;;5019758;28;20496;-48
2022/01/16 07:18:40;;;;;;;154.90;75.22;;;4.20;99.90;;;;;;5015961;28;20053;-49
2022/01/16 07:21:12;;;;;;;160.50;76.00;;;4.10;99.90;;;;;;5019642;28;20049;-46
2022/01/16 07:23:42;;;;;;;137.32;64.50;;;4.10;99.90;;;;;;5023957;28;20051;-49
2022/01/16 07:26:08;;;;;;;191.15;103.43;;;4.20;99.90;;;;;;5024577;28;20527;-48
2022/01/16 07:28:34;;;;;;;174.98;87.50;;;4.30;99.90;;;;;;5021618;28;20128;-48
2022/01/16 07:31:00;;;;;;;201.02;97.78;;;4.30;99.90;;;;;;4993831;28;20390;-47
2022/01/16 07:33:26;;;;;;;147.55;70.15;;;4.40;99.90;;;;;;5015496;28;20424;-55
2022/01/16 07:35:51;;;;;;;138.55;59.55;;;4.40;99.90;;;;;;5025609;28;20404;-46
2022/01/16 07:38:17;;;;;;;157.70;83.20;;;4.30;99.90;;;;;;5023512;28;20260;-47
2022/01/16 07:40:43;;;;;;;141.57;80.05;;;4.30;99.90;;;;;;5005261;28;20045;-46
2022/01/16 07:43:09;;;;;;;134.95;75.30;;;4.40;99.90;;;;;;5023821;28;20444;-47
2022/01/16 07:45:34;;;;;;;129.80;68.10;;;4.40;99.90;;;;;;5022608;28;20050;-46
2022/01/16 07:48:00;;;;;;;143.18;77.63;;;4.40;99.90;;;;;;5004776;28;20051;-45
2022/01/16 07:50:26;;;;;;;155.65;92.07;;;4.50;99.90;;;;;;5005015;28;20456;-47
2022/01/16 07:52:52;;;;;;;117.53;63.95;;;4.30;99.90;;;;;;5024245;28;20160;-46
2022/01/16 07:55:21;;;;;;;112.78;57.78;;;4.50;99.90;;;;;;5025445;28;20049;-46
2022/01/16 07:57:49;;;;;;;174.00;114.65;;;4.40;99.90;;;;;;5041378;28;20148;-47
2022/01/16 08:00:15;;;;;;;132.70;77.43;;;4.50;99.90;;;;;;5025154;28;20512;-46
2022/01/16 08:02:40;;;;;;;109.13;55.95;;;4.40;99.90;;;;;;5023211;28;20058;-47
2022/01/16 08:05:06;;;;;;;97.72;53.05;;;4.50;99.90;;;;;;5022955;28;20140;-46
2022/01/16 08:07:32;;;;;;;108.60;59.92;;;4.40;99.90;;;;;;5013081;28;20056;-47
2022/01/16 08:09:58;;;;;;;108.82;58.85;;;4.50;99.90;;;;;;5019070;28;20045;-47
2022/01/16 08:12:23;;;;;;;110.35;59.70;;;4.50;99.90;;;;;;5006006;28;20053;-46
2022/01/16 08:14:56;;;;;;;119.50;76.15;;;4.50;99.90;;;;;;5023417;28;20136;-47
2022/01/16 08:17:21;;;;;;;98.90;61.38;;;4.60;99.90;;;;;;5023445;28;20037;-46
2022/01/16 08:19:47;;;;;;;113.55;73.90;;;4.70;99.90;;;;;;5023785;28;20454;-46
2022/01/16 08:22:13;;;;;;;127.85;91.45;;;4.50;99.90;;;;;;5023698;28;20095;-46
2022/01/16 08:24:39;;;;;;;96.97;69.68;;;4.60;99.90;;;;;;5023035;28;20487;-47
2022/01/16 08:27:04;;;;;;;104.22;79.10;;;4.70;99.90;;;;;;5022226;28;20050;-49
2022/01/16 08:29:30;;;;;;;59.38;41.30;;;4.70;99.90;;;;;;5021655;28;20041;-47
2022/01/16 08:31:56;;;;;;;61.40;41.00;;;4.80;99.90;;;;;;5023180;28;20045;-49
2022/01/16 08:34:23;;;;;;;165.48;123.15;;;4.80;99.90;;;;;;5023035;28;20060;-49
2022/01/16 08:36:49;;;;;;;91.00;78.07;;;4.90;99.90;;;;;;5023695;28;20168;-48
2022/01/16 08:39:15;;;;;;;92.93;75.55;;;5.00;99.90;;;;;;5025798;28;20128;-50
2022/01/16 08:41:41;;;;;;;84.78;69.85;;;5.10;99.90;;;;;;5021274;28;20175;-50
2022/01/16 08:44:07;;;;;;;59.10;45.35;;;5.10;99.90;;;;;;5020795;28;20041;-47
2022/01/16 08:46:34;;;;;;;53.63;39.90;;;5.10;99.90;;;;;;5021942;28;20049;-47
2022/01/16 08:49:00;;;;;;;64.45;46.92;;;5.20;99.90;;;;;;5002905;28;20088;-45
2022/01/16 08:51:26;;;;;;;70.38;54.58;;;5.20;99.90;;;;;;5016774;28;20136;-47
2022/01/16 08:53:52;;;;;;;67.22;49.45;;;5.30;99.90;;;;;;5015926;28;20477;-47
2022/01/16 08:56:18;;;;;;;81.18;64.82;;;5.30;99.90;;;;;;5016240;28;20042;-50
2022/01/16 08:58:43;;;;;;;88.82;72.80;;;5.30;99.90;;;;;;5014943;28;20045;-47
2022/01/16 09:01:09;;;;;;;82.88;65.60;;;5.40;99.90;;;;;;5013152;28;20052;-46
2022/01/16 09:03:38;;;;;;;84.43;68.25;;;5.40;99.90;;;;;;5011711;28;20045;-47
2022/01/16 09:06:05;;;;;;;83.68;61.55;;;5.50;99.90;;;;;;5017608;28;20385;-48
2022/01/16 09:08:31;;;;;;;61.63;45.17;;;5.40;99.90;;;;;;5001254;28;20473;-46
2022/01/16 09:10:56;;;;;;;68.47;51.05;;;5.50;99.90;;;;;;5014681;28;20215;-46
2022/01/16 09:13:22;;;;;;;62.47;40.30;;;5.60;99.90;;;;;;5020086;28;20041;-47
2022/01/16 09:15:50;;;;;;;58.22;40.13;;;5.60;99.90;;;;;;5022022;28;20049;-48
2022/01/16 09:18:17;;;;;;;62.75;43.13;;;5.70;99.90;;;;;;5021377;28;20131;-46
2022/01/16 09:20:45;;;;;;;68.88;48.50;;;5.70;99.90;;;;;;5021637;28;20038;-47
2022/01/16 09:23:14;;;;;;;40.92;29.67;;;5.70;99.90;;;;;;5021289;28;20064;-46
2022/01/16 09:25:40;;;;;;;46.03;29.92;;;5.70;99.90;;;;;;5021803;28;20046;-47
2022/01/16 09:28:06;;;;;;;52.38;32.28;;;5.70;99.90;;;;;;5019882;28;20538;-46
2022/01/16 09:30:33;;;;;;;45.63;30.70;;;5.70;99.90;;;;;;5002988;28;20504;-49
2022/01/16 09:32:59;;;;;;;45.58;33.58;;;5.70;99.90;;;;;;5002801;28;20092;-50
2022/01/16 09:35:26;;;;;;;44.20;30.00;;;5.70;99.90;;;;;;5020103;28;20051;-51
2022/01/16 09:37:52;;;;;;;52.05;35.50;;;5.80;99.90;;;;;;5003146;28;20099;-47
2022/01/16 09:40:20;;;;;;;215.05;135.90;;;5.80;99.90;;;;;;5021499;28;20140;-48
2022/01/16 09:42:49;;;;;;;139.20;95.80;;;5.80;99.90;;;;;;5018094;28;20107;-46
2022/01/16 09:45:17;;;;;;;92.07;54.45;;;5.80;99.90;;;;;;5020958;28;20053;-48
2022/01/16 09:47:44;;;;;;;72.57;54.47;;;5.80;99.90;;;;;;4993508;28;20068;-48
2022/01/16 09:50:11;;;;;;;50.35;33.00;;;5.80;99.90;;;;;;5006317;28;20183;-50
2022/01/16 09:52:42;;;;;;;47.38;34.40;;;5.80;99.90;;;;;;5022247;28;20056;-53
2022/01/16 09:55:09;;;;;;;52.70;36.72;;;5.80;99.90;;;;;;5021532;28;20558;-50
2022/01/16 09:57:35;;;;;;;48.97;36.67;;;5.80;99.90;;;;;;5022009;28;20064;-47
2022/01/16 10:00:06;;;;;;;44.40;28.20;;;5.90;99.90;;;;;;5021295;28;20063;-47
2022/01/16 10:02:32;;;;;;;46.80;27.67;;;5.80;99.90;;;;;;5021974;28;20483;-47
2022/01/16 10:04:58;;;;;;;44.20;25.55;;;5.90;99.90;;;;;;5020422;28;20496;-47
2022/01/16 10:07:23;;;;;;;41.63;28.27;;;5.90;99.90;;;;;;5021199;28;20049;-47
2022/01/16 10:10:09;;;;;;;39.15;28.15;;;5.90;99.90;;;;;;5009162;28;20069;-47
2022/01/16 10:12:35;;;;;;;42.88;26.58;;;5.90;99.90;;;;;;5003609;28;20064;-47
2022/01/16 10:15:25;;;;;;;34.05;25.85;;;5.90;99.90;;;;;;5000767;28;20062;-47
2022/01/16 10:17:54;;;;;;;33.95;21.73;;;6.00;99.90;;;;;;4989171;28;20050;-49
2022/01/16 10:20:20;;;;;;;36.58;23.92;;;5.90;99.90;;;;;;4993433;28;20042;-49
2022/01/16 10:22:48;;;;;;;40.45;22.83;;;6.00;99.90;;;;;;4997864;28;20543;-47
2022/01/16 10:25:17;;;;;;;33.45;21.63;;;5.90;99.90;;;;;;5001511;28;20060;-47
2022/01/16 10:27:45;;;;;;;42.47;32.92;;;6.00;99.90;;;;;;4998424;28;20423;-46
2022/01/16 10:30:15;;;;;;;41.85;30.13;;;6.00;99.90;;;;;;5001320;28;20062;-47
2022/01/16 10:32:43;;;;;;;31.20;23.13;;;6.00;99.90;;;;;;5002516;28;20054;-47
2022/01/16 10:35:12;;;;;;;31.05;19.60;;;6.00;99.90;;;;;;5003851;28;20060;-50
2022/01/16 10:37:41;;;;;;;27.75;16.25;;;6.00;99.90;;;;;;5000508;28;20052;-47
2022/01/16 10:40:09;;;;;;;33.03;19.80;;;6.10;99.90;;;;;;5000179;28;20050;-46
2022/01/16 10:42:36;;;;;;;35.95;26.95;;;6.00;99.90;;;;;;4994888;28;20507;-47
2022/01/16 10:45:13;;;;;;;41.50;30.65;;;6.00;99.90;;;;;;5000651;28;20046;-46
2022/01/16 10:47:51;;;;;;;39.20;22.40;;;6.00;99.90;;;;;;4999368;28;20372;-51
2022/01/16 10:50:20;;;;;;;34.05;20.38;;;6.10;99.90;;;;;;5001125;28;20050;-49
2022/01/16 10:52:57;;;;;;;79.00;57.17;;;6.10;99.90;;;;;;5001329;28;20053;-46
2022/01/16 10:56:00;;;;;;;46.58;28.98;;;6.10;99.90;;;;;;5005987;28;20212;-46
2022/01/16 10:58:43;;;;;;;68.70;53.20;;;6.10;99.90;;;;;;4996183;28;20053;-49
2022/01/16 11:01:13;;;;;;;50.53;39.03;;;6.20;99.90;;;;;;5008490;28;20038;-49
2022/01/16 11:03:48;;;;;;;31.70;17.20;;;6.20;99.90;;;;;;5002008;28;20128;-57
2022/01/16 11:06:18;;;;;;;52.80;33.38;;;6.20;99.90;;;;;;5003289;28;20068;-47
2022/01/16 11:08:52;;;;;;;51.97;38.13;;;6.20;99.90;;;;;;5003564;28;20056;-48
2022/01/16 11:11:20;;;;;;;52.13;30.48;;;6.20;99.90;;;;;;5004474;28;20551;-46
2022/01/16 11:13:46;;;;;;;48.15;31.30;;;6.20;99.90;;;;;;5005957;28;20066;-47
2022/01/16 11:16:12;;;;;;;50.35;32.97;;;6.20;99.90;;;;;;4988200;28;20496;-46
2022/01/16 11:18:40;;;;;;;27.33;14.85;;;6.20;99.90;;;;;;5005157;28;20081;-47
2022/01/16 11:21:15;;;;;;;53.97;36.78;;;6.20;99.90;;;;;;4996193;28;20061;-49
2022/01/16 11:26:20;;;;;;;41.30;23.83;;;6.30;99.90;;;;;;5016716;28;20515;-46
2022/01/16 11:28:46;;;;;;;125.15;94.95;;;6.30;99.90;;;;;;5014379;28;20152;-50
2022/01/16 11:31:18;;;;;;;99.25;72.68;;;6.30;99.90;;;;;;4999884;28;20042;-49
2022/01/16 11:33:44;;;;;;;68.88;47.67;;;6.30;99.90;;;;;;5016542;28;20084;-48
2022/01/16 11:36:18;;;;;;;46.10;28.88;;;6.30;99.90;;;;;;4985894;28;20531;-47
2022/01/16 11:38:53;;;;;;;79.97;51.38;;;6.40;99.90;;;;;;4997440;28;20084;-48
2022/01/16 11:41:35;;;;;;;81.25;55.17;;;6.40;99.90;;;;;;5018716;28;20042;-49
2022/01/16 11:44:20;;;;;;;93.85;66.45;;;6.50;99.90;;;;;;4996771;28;20378;-49
2022/01/16 11:46:50;;;;;;;69.53;49.65;;;6.50;99.90;;;;;;4995850;28;20069;-48
2022/01/16 11:49:20;;;;;;;83.07;59.85;;;6.60;99.90;;;;;;5014424;28;20037;-47
2022/01/16 11:51:51;;;;;;;74.05;52.97;;;6.60;99.90;;;;;;4999531;28;20059;-49
2022/01/16 11:54:28;;;;;;;41.38;29.15;;;6.60;99.90;;;;;;5015617;28;20353;-48
2022/01/16 11:56:58;;;;;;;50.20;31.83;;;6.60;99.90;;;;;;4999603;28;20053;-46
2022/01/16 11:59:30;;;;;;;31.27;18.15;;;6.60;99.90;;;;;;5005950;28;20368;-49
2022/01/16 12:02:02;;;;;;;233.18;207.52;;;6.70;99.90;;;;;;5023308;28;20195;-47
2022/01/16 12:04:28;;;;;;;253.25;226.75;;;6.70;99.90;;;;;;5024056;28;20049;-47
2022/01/16 12:06:58;;;;;;;48.58;43.15;;;6.70;99.90;;;;;;5023936;28;20492;-47
2022/01/16 12:12:23;;;;;;;21.90;12.57;;;6.80;99.90;;;;;;5014415;28;20052;-47
2022/01/16 12:14:51;;;;;;;24.60;13.88;;;6.80;99.90;;;;;;5002910;28;20392;-49
2022/01/16 12:17:44;;;;;;;23.02;13.07;;;6.80;99.90;;;;;;5003937;28;20092;-47
2022/01/16 12:20:13;;;;;;;24.02;11.43;;;6.80;99.90;;;;;;4995450;28;20143;-49
2022/01/16 12:23:04;;;;;;;24.65;12.45;;;6.80;99.90;;;;;;4996543;28;20046;-46
2022/01/16 12:25:45;;;;;;;20.73;10.93;;;6.80;99.90;;;;;;5002988;28;20050;-49
2022/01/16 12:28:11;;;;;;;21.20;12.05;;;6.80;99.90;;;;;;4989830;28;20124;-49
2022/01/16 12:30:42;;;;;;;28.48;11.18;;;6.80;99.90;;;;;;5002989;28;20049;-47
2022/01/16 12:33:09;;;;;;;22.08;11.80;;;6.80;99.90;;;;;;4997789;28;20045;-50
2022/01/16 12:35:58;;;;;;;26.15;12.35;;;6.90;99.90;;;;;;4993541;28;20128;-47
2022/01/16 12:38:32;;;;;;;24.27;12.02;;;6.80;99.90;;;;;;4995175;28;20053;-47
2022/01/16 12:41:21;;;;;;;24.48;11.10;;;6.90;99.90;;;;;;4982228;28;20409;-48
2022/01/16 12:43:56;;;;;;;18.92;11.35;;;6.90;99.90;;;;;;5002452;28;20046;-47
2022/01/16 12:46:23;;;;;;;17.70;9.73;;;6.80;99.90;;;;;;5000529;28;20432;-47
2022/01/16 12:48:52;;;;;;;18.88;9.35;;;6.80;99.90;;;;;;4999812;28;20072;-48
2022/01/16 12:51:26;;;;;;;22.23;10.32;;;6.90;99.90;;;;;;4997533;28;20089;-47
2022/01/16 12:53:59;;;;;;;24.77;12.07;;;6.90;99.90;;;;;;4999497;28;20037;-48
2022/01/16 12:56:30;;;;;;;24.15;10.73;;;6.90;99.90;;;;;;4990888;28;20060;-50
2022/01/16 12:59:05;;;;;;;25.20;14.18;;;6.90;99.90;;;;;;4993067;28;20061;-47
2022/01/16 13:01:32;;;;;;;19.55;9.20;;;6.90;99.90;;;;;;5002371;28;20050;-47
2022/01/16 13:03:58;;;;;;;39.80;25.00;;;6.90;99.90;;;;;;4989758;28;20056;-48
2022/01/16 13:06:27;;;;;;;46.05;32.75;;;6.90;99.90;;;;;;5003033;28;20050;-48
2022/01/16 13:09:08;;;;;;;34.83;23.92;;;6.90;99.90;;;;;;5006998;28;20088;-47
2022/01/16 13:11:38;;;;;;;45.42;38.47;;;6.90;99.90;;;;;;5006801;28;20143;-47
2022/01/16 13:14:09;;;;;;;21.73;12.68;;;6.80;99.90;;;;;;5009483;28;20085;-49
2022/01/16 13:16:40;;;;;;;19.73;10.55;;;6.80;99.90;;;;;;5019096;28;20053;-48
2022/01/16 13:19:27;;;;;;;25.40;17.88;;;6.80;99.90;;;;;;5031283;28;20068;-48
2022/01/16 13:25:04;;;;;;;28.55;20.83;;;6.80;99.90;;;;;;5025423;28;20092;-49
2022/01/16 13:27:34;;;;;;;21.27;9.95;;;6.80;99.90;;;;;;4998372;28;20205;-50
2022/01/16 13:30:02;;;;;;;25.65;12.02;;;6.80;99.90;;;;;;5021393;28;20140;-50
2022/01/16 13:32:30;;;;;;;23.23;11.05;;;6.80;99.90;;;;;;4991266;28;20062;-47
2022/01/16 13:34:57;;;;;;;18.05;11.18;;;6.80;99.90;;;;;;5006310;28;20610;-48
2022/01/16 13:37:37;;;;;;;20.27;10.73;;;6.80;99.90;;;;;;5022096;28;20120;-47